sensor_id;sensor_type;location;lat;lon;timestamp;P1;durP1;ratioP1;P2;durP2;ratioP2
47882;SDS011;37739;50.350;7.578;2023-09-30T00:01:50;6.07;;;4.30;;
47882;SDS011;37739;50.350;7.578;2023-09-30T00:04:17;6.37;;;4.17;;
47882;SDS011;37739;50.350;7.578;2023-09-30T00:06:47;5.93;;;3.83;;
47882;SDS011;37739;50.350;7.578;2023-09-30T00:09:12;6.83;;;4.13;;
47882;SDS011;37739;50.350;7.578;2023-09-30T00:11:40;6.40;;;4.20;;
47882;SDS011;37739;50.350;7.578;2023-09-30T00:14:08;7.60;;;4.60;;
47882;SDS011;37739;50.350;7.578;2023-09-30T00:16:35;6.30;;;4.53;;
47882;SDS011;37739;50.350;7.578;2023-09-30T00:19:03;5.23;;;3.87;;
47882;SDS011;37739;50.350;7.578;2023-09-30T00:21:33;6.83;;;4.97;;
47882;SDS011;37739;50.350;7.578;2023-09-30T00:24:00;8.23;;;4.43;;
47882;SDS011;37739;50.350;7.578;2023-09-30T00:26:28;7.40;;;5.43;;
47882;SDS011;37739;50.350;7.578;2023-09-30T00:28:55;7.90;;;4.70;;
47882;SDS011;37739;50.350;7.578;2023-09-30T00:31:23;8.47;;;5.70;;
47882;SDS011;37739;50.350;7.578;2023-09-30T00:33:53;7.90;;;5.17;;
47882;SDS011;37739;50.350;7.578;2023-09-30T00:36:21;9.83;;;5.63;;
47882;SDS011;37739;50.350;7.578;2023-09-30T00:38:46;7.50;;;5.47;;
47882;SDS011;37739;50.350;7.578;2023-09-30T00:41:14;9.73;;;6.23;;
47882;SDS011;37739;50.350;7.578;2023-09-30T00:43:39;6.60;;;5.00;;
47882;SDS011;37739;50.350;7.578;2023-09-30T00:48:45;4.70;;;4.13;;
47882;SDS011;37739;50.350;7.578;2023-09-30T00:51:13;6.17;;;5.27;;
47882;SDS011;37739;50.350;7.578;2023-09-30T00:53:39;7.17;;;4.30;;
47882;SDS011;37739;50.350;7.578;2023-09-30T00:56:05;7.80;;;5.00;;
47882;SDS011;37739;50.350;7.578;2023-09-30T00:58:30;7.73;;;5.50;;
47882;SDS011;37739;50.350;7.578;2023-09-30T01:00:57;6.93;;;5.47;;
47882;SDS011;37739;50.350;7.578;2023-09-30T01:03:24;7.40;;;5.00;;
47882;SDS011;37739;50.350;7.578;2023-09-30T01:05:50;7.97;;;5.83;;
47882;SDS011;37739;50.350;7.578;2023-09-30T01:08:18;9.57;;;5.60;;
47882;SDS011;37739;50.350;7.578;2023-09-30T01:10:46;10.03;;;5.70;;
47882;SDS011;37739;50.350;7.578;2023-09-30T01:13:13;7.43;;;5.37;;
47882;SDS011;37739;50.350;7.578;2023-09-30T01:15:39;5.87;;;4.80;;
47882;SDS011;37739;50.350;7.578;2023-09-30T01:18:06;8.03;;;5.63;;
47882;SDS011;37739;50.350;7.578;2023-09-30T01:20:32;9.00;;;6.80;;
47882;SDS011;37739;50.350;7.578;2023-09-30T01:23:01;8.30;;;6.27;;
47882;SDS011;37739;50.350;7.578;2023-09-30T01:25:27;10.17;;;6.73;;
47882;SDS011;37739;50.350;7.578;2023-09-30T01:27:55;8.80;;;5.90;;
47882;SDS011;37739;50.350;7.578;2023-09-30T01:30:22;7.10;;;5.00;;
47882;SDS011;37739;50.350;7.578;2023-09-30T01:32:50;9.07;;;5.97;;
47882;SDS011;37739;50.350;7.578;2023-09-30T01:35:15;8.80;;;5.53;;
47882;SDS011;37739;50.350;7.578;2023-09-30T01:37:40;7.80;;;5.80;;
47882;SDS011;37739;50.350;7.578;2023-09-30T01:40:06;6.07;;;5.47;;
47882;SDS011;37739;50.350;7.578;2023-09-30T01:42:36;9.33;;;5.33;;
47882;SDS011;37739;50.350;7.578;2023-09-30T01:45:02;7.23;;;5.40;;
47882;SDS011;37739;50.350;7.578;2023-09-30T01:47:31;8.70;;;5.97;;
47882;SDS011;37739;50.350;7.578;2023-09-30T01:49:56;6.37;;;4.30;;
47882;SDS011;37739;50.350;7.578;2023-09-30T01:52:21;5.43;;;4.80;;
47882;SDS011;37739;50.350;7.578;2023-09-30T01:54:49;7.30;;;5.60;;
47882;SDS011;37739;50.350;7.578;2023-09-30T01:57:16;9.23;;;5.43;;
47882;SDS011;37739;50.350;7.578;2023-09-30T01:59:46;6.80;;;5.47;;
47882;SDS011;37739;50.350;7.578;2023-09-30T02:02:11;6.17;;;5.23;;
47882;SDS011;37739;50.350;7.578;2023-09-30T02:04:37;11.10;;;5.70;;
47882;SDS011;37739;50.350;7.578;2023-09-30T02:07:05;7.53;;;5.23;;
47882;SDS011;37739;50.350;7.578;2023-09-30T02:09:30;7.27;;;5.10;;
47882;SDS011;37739;50.350;7.578;2023-09-30T02:11:55;7.07;;;5.30;;
47882;SDS011;37739;50.350;7.578;2023-09-30T02:14:21;5.87;;;4.70;;
47882;SDS011;37739;50.350;7.578;2023-09-30T02:16:49;6.63;;;4.80;;
47882;SDS011;37739;50.350;7.578;2023-09-30T02:19:17;8.57;;;6.03;;
47882;SDS011;37739;50.350;7.578;2023-09-30T02:21:44;6.20;;;5.50;;
47882;SDS011;37739;50.350;7.578;2023-09-30T02:24:10;6.90;;;5.03;;
47882;SDS011;37739;50.350;7.578;2023-09-30T02:26:42;5.97;;;4.87;;
47882;SDS011;37739;50.350;7.578;2023-09-30T02:29:10;7.10;;;5.30;;
47882;SDS011;37739;50.350;7.578;2023-09-30T02:31:36;6.37;;;5.20;;
47882;SDS011;37739;50.350;7.578;2023-09-30T02:34:03;6.20;;;5.53;;
47882;SDS011;37739;50.350;7.578;2023-09-30T02:36:33;6.70;;;5.80;;
47882;SDS011;37739;50.350;7.578;2023-09-30T02:39:04;7.27;;;6.40;;
47882;SDS011;37739;50.350;7.578;2023-09-30T02:41:30;6.43;;;5.83;;
47882;SDS011;37739;50.350;7.578;2023-09-30T02:43:55;7.97;;;6.70;;
47882;SDS011;37739;50.350;7.578;2023-09-30T02:46:20;7.50;;;6.43;;
47882;SDS011;37739;50.350;7.578;2023-09-30T02:48:48;8.30;;;5.93;;
47882;SDS011;37739;50.350;7.578;2023-09-30T02:51:19;6.57;;;5.07;;
47882;SDS011;37739;50.350;7.578;2023-09-30T02:53:47;7.30;;;6.37;;
47882;SDS011;37739;50.350;7.578;2023-09-30T02:56:13;7.57;;;6.17;;
47882;SDS011;37739;50.350;7.578;2023-09-30T02:58:39;6.80;;;5.27;;
47882;SDS011;37739;50.350;7.578;2023-09-30T03:01:05;7.20;;;6.00;;
47882;SDS011;37739;50.350;7.578;2023-09-30T03:03:31;7.93;;;6.47;;
47882;SDS011;37739;50.350;7.578;2023-09-30T03:05:58;6.83;;;5.80;;
47882;SDS011;37739;50.350;7.578;2023-09-30T03:08:25;6.70;;;6.00;;
47882;SDS011;37739;50.350;7.578;2023-09-30T03:10:53;7.40;;;5.87;;
47882;SDS011;37739;50.350;7.578;2023-09-30T03:13:20;11.40;;;6.13;;
47882;SDS011;37739;50.350;7.578;2023-09-30T03:15:46;8.67;;;6.40;;
47882;SDS011;37739;50.350;7.578;2023-09-30T03:18:14;8.87;;;6.20;;
47882;SDS011;37739;50.350;7.578;2023-09-30T03:20:42;6.53;;;5.90;;
47882;SDS011;37739;50.350;7.578;2023-09-30T03:23:08;7.37;;;5.30;;
47882;SDS011;37739;50.350;7.578;2023-09-30T03:25:33;6.50;;;5.90;;
47882;SDS011;37739;50.350;7.578;2023-09-30T03:27:59;6.97;;;5.60;;
47882;SDS011;37739;50.350;7.578;2023-09-30T03:30:24;7.60;;;6.00;;
47882;SDS011;37739;50.350;7.578;2023-09-30T03:32:54;8.63;;;6.37;;
47882;SDS011;37739;50.350;7.578;2023-09-30T03:35:22;7.40;;;6.07;;
47882;SDS011;37739;50.350;7.578;2023-09-30T03:37:50;7.80;;;6.10;;
47882;SDS011;37739;50.350;7.578;2023-09-30T03:40:15;6.40;;;5.23;;
47882;SDS011;37739;50.350;7.578;2023-09-30T03:42:52;7.03;;;5.60;;
47882;SDS011;37739;50.350;7.578;2023-09-30T03:45:20;9.03;;;5.87;;
47882;SDS011;37739;50.350;7.578;2023-09-30T03:47:47;7.07;;;6.23;;
47882;SDS011;37739;50.350;7.578;2023-09-30T03:50:12;6.33;;;5.70;;
47882;SDS011;37739;50.350;7.578;2023-09-30T03:52:39;5.57;;;4.83;;
47882;SDS011;37739;50.350;7.578;2023-09-30T03:55:05;7.63;;;5.23;;
47882;SDS011;37739;50.350;7.578;2023-09-30T03:57:33;6.27;;;5.23;;
47882;SDS011;37739;50.350;7.578;2023-09-30T04:00:01;7.80;;;5.67;;
47882;SDS011;37739;50.350;7.578;2023-09-30T04:02:30;7.00;;;5.43;;
47882;SDS011;37739;50.350;7.578;2023-09-30T04:04:56;6.70;;;5.90;;
47882;SDS011;37739;50.350;7.578;2023-09-30T04:07:25;11.27;;;4.90;;
47882;SDS011;37739;50.350;7.578;2023-09-30T04:09:54;9.17;;;6.40;;
47882;SDS011;37739;50.350;7.578;2023-09-30T04:12:19;5.63;;;4.90;;
47882;SDS011;37739;50.350;7.578;2023-09-30T04:14:45;7.13;;;6.20;;
47882;SDS011;37739;50.350;7.578;2023-09-30T04:17:15;8.53;;;6.17;;
47882;SDS011;37739;50.350;7.578;2023-09-30T04:19:40;7.03;;;5.43;;
47882;SDS011;37739;50.350;7.578;2023-09-30T04:22:06;7.30;;;6.03;;
47882;SDS011;37739;50.350;7.578;2023-09-30T04:24:31;7.33;;;6.47;;
47882;SDS011;37739;50.350;7.578;2023-09-30T04:26:56;6.90;;;5.57;;
47882;SDS011;37739;50.350;7.578;2023-09-30T04:29:27;8.90;;;6.93;;
47882;SDS011;37739;50.350;7.578;2023-09-30T04:31:55;8.70;;;6.67;;
47882;SDS011;37739;50.350;7.578;2023-09-30T04:34:23;8.97;;;5.93;;
47882;SDS011;37739;50.350;7.578;2023-09-30T04:36:49;13.00;;;8.03;;
47882;SDS011;37739;50.350;7.578;2023-09-30T04:39:14;8.87;;;7.20;;
47882;SDS011;37739;50.350;7.578;2023-09-30T04:41:43;10.57;;;7.03;;
47882;SDS011;37739;50.350;7.578;2023-09-30T04:44:08;10.63;;;6.87;;
47882;SDS011;37739;50.350;7.578;2023-09-30T04:46:36;9.93;;;6.63;;
47882;SDS011;37739;50.350;7.578;2023-09-30T04:49:06;6.97;;;6.13;;
47882;SDS011;37739;50.350;7.578;2023-09-30T04:51:32;11.73;;;6.77;;
47882;SDS011;37739;50.350;7.578;2023-09-30T04:54:00;10.47;;;8.10;;
47882;SDS011;37739;50.350;7.578;2023-09-30T04:56:27;8.83;;;6.20;;
47882;SDS011;37739;50.350;7.578;2023-09-30T04:58:52;9.07;;;6.17;;
47882;SDS011;37739;50.350;7.578;2023-09-30T05:01:18;8.47;;;5.80;;
47882;SDS011;37739;50.350;7.578;2023-09-30T05:03:45;7.50;;;6.70;;
47882;SDS011;37739;50.350;7.578;2023-09-30T05:06:16;8.67;;;6.27;;
47882;SDS011;37739;50.350;7.578;2023-09-30T05:08:42;9.67;;;6.83;;
47882;SDS011;37739;50.350;7.578;2023-09-30T05:11:07;8.07;;;6.00;;
47882;SDS011;37739;50.350;7.578;2023-09-30T05:13:32;7.70;;;6.93;;
47882;SDS011;37739;50.350;7.578;2023-09-30T05:15:59;10.53;;;7.00;;
47882;SDS011;37739;50.350;7.578;2023-09-30T05:18:28;8.93;;;7.40;;
47882;SDS011;37739;50.350;7.578;2023-09-30T05:20:53;11.17;;;7.60;;
47882;SDS011;37739;50.350;7.578;2023-09-30T05:23:18;10.27;;;7.90;;
47882;SDS011;37739;50.350;7.578;2023-09-30T05:25:46;9.57;;;7.50;;
47882;SDS011;37739;50.350;7.578;2023-09-30T05:28:14;7.90;;;7.10;;
47882;SDS011;37739;50.350;7.578;2023-09-30T05:30:42;7.67;;;6.60;;
47882;SDS011;37739;50.350;7.578;2023-09-30T05:33:08;7.53;;;6.70;;
47882;SDS011;37739;50.350;7.578;2023-09-30T05:35:41;8.70;;;6.83;;
47882;SDS011;37739;50.350;7.578;2023-09-30T05:38:09;7.97;;;7.17;;
47882;SDS011;37739;50.350;7.578;2023-09-30T05:40:35;9.77;;;8.73;;
47882;SDS011;37739;50.350;7.578;2023-09-30T05:43:01;9.67;;;7.80;;
47882;SDS011;37739;50.350;7.578;2023-09-30T05:45:27;20.03;;;8.30;;
47882;SDS011;37739;50.350;7.578;2023-09-30T05:47:53;20.80;;;7.30;;
47882;SDS011;37739;50.350;7.578;2023-09-30T05:50:22;20.30;;;7.43;;
47882;SDS011;37739;50.350;7.578;2023-09-30T05:52:51;16.10;;;6.87;;
47882;SDS011;37739;50.350;7.578;2023-09-30T05:55:20;13.07;;;6.33;;
47882;SDS011;37739;50.350;7.578;2023-09-30T05:57:47;8.73;;;5.83;;
47882;SDS011;37739;50.350;7.578;2023-09-30T06:00:15;7.33;;;6.57;;
47882;SDS011;37739;50.350;7.578;2023-09-30T06:03:02;9.80;;;7.13;;
47882;SDS011;37739;50.350;7.578;2023-09-30T06:05:31;8.57;;;7.63;;
47882;SDS011;37739;50.350;7.578;2023-09-30T06:07:57;9.87;;;8.10;;
47882;SDS011;37739;50.350;7.578;2023-09-30T06:10:27;11.10;;;9.10;;
47882;SDS011;37739;50.350;7.578;2023-09-30T06:12:56;8.93;;;8.03;;
47882;SDS011;37739;50.350;7.578;2023-09-30T06:15:22;11.17;;;7.93;;
47882;SDS011;37739;50.350;7.578;2023-09-30T06:17:51;11.70;;;10.60;;
47882;SDS011;37739;50.350;7.578;2023-09-30T06:20:17;11.97;;;10.87;;
47882;SDS011;37739;50.350;7.578;2023-09-30T06:22:49;12.10;;;8.47;;
47882;SDS011;37739;50.350;7.578;2023-09-30T06:25:15;10.67;;;9.53;;
47882;SDS011;37739;50.350;7.578;2023-09-30T06:27:47;10.97;;;9.03;;
47882;SDS011;37739;50.350;7.578;2023-09-30T06:30:18;9.50;;;8.37;;
47882;SDS011;37739;50.350;7.578;2023-09-30T06:32:47;10.20;;;8.20;;
47882;SDS011;37739;50.350;7.578;2023-09-30T06:35:15;12.43;;;7.87;;
47882;SDS011;37739;50.350;7.578;2023-09-30T06:37:41;10.60;;;9.50;;
47882;SDS011;37739;50.350;7.578;2023-09-30T06:40:07;9.40;;;7.80;;
47882;SDS011;37739;50.350;7.578;2023-09-30T06:42:34;9.60;;;8.43;;
47882;SDS011;37739;50.350;7.578;2023-09-30T06:45:04;11.43;;;8.07;;
47882;SDS011;37739;50.350;7.578;2023-09-30T06:47:31;9.33;;;7.53;;
47882;SDS011;37739;50.350;7.578;2023-09-30T06:50:02;9.40;;;8.00;;
47882;SDS011;37739;50.350;7.578;2023-09-30T06:52:36;11.67;;;7.57;;
47882;SDS011;37739;50.350;7.578;2023-09-30T06:55:03;8.33;;;7.17;;
47882;SDS011;37739;50.350;7.578;2023-09-30T06:57:32;9.40;;;7.80;;
47882;SDS011;37739;50.350;7.578;2023-09-30T06:59:59;8.23;;;7.37;;
47882;SDS011;37739;50.350;7.578;2023-09-30T07:02:24;10.30;;;7.20;;
47882;SDS011;37739;50.350;7.578;2023-09-30T07:04:50;8.13;;;7.33;;
47882;SDS011;37739;50.350;7.578;2023-09-30T07:07:18;8.57;;;7.80;;
47882;SDS011;37739;50.350;7.578;2023-09-30T07:09:46;9.70;;;8.50;;
47882;SDS011;37739;50.350;7.578;2023-09-30T07:12:11;11.23;;;8.00;;
47882;SDS011;37739;50.350;7.578;2023-09-30T07:14:37;8.87;;;7.93;;
47882;SDS011;37739;50.350;7.578;2023-09-30T07:17:02;12.83;;;8.20;;
47882;SDS011;37739;50.350;7.578;2023-09-30T07:19:29;11.07;;;8.50;;
47882;SDS011;37739;50.350;7.578;2023-09-30T07:21:55;10.33;;;8.77;;
47882;SDS011;37739;50.350;7.578;2023-09-30T07:24:21;13.40;;;8.70;;
47882;SDS011;37739;50.350;7.578;2023-09-30T07:26:48;11.33;;;8.93;;
47882;SDS011;37739;50.350;7.578;2023-09-30T07:29:13;11.43;;;8.90;;
47882;SDS011;37739;50.350;7.578;2023-09-30T07:31:41;9.67;;;8.67;;
47882;SDS011;37739;50.350;7.578;2023-09-30T07:34:06;14.43;;;9.63;;
47882;SDS011;37739;50.350;7.578;2023-09-30T07:36:32;10.00;;;9.00;;
47882;SDS011;37739;50.350;7.578;2023-09-30T07:38:57;10.37;;;9.27;;
47882;SDS011;37739;50.350;7.578;2023-09-30T07:41:22;12.43;;;8.83;;
47882;SDS011;37739;50.350;7.578;2023-09-30T07:43:50;9.10;;;8.10;;
47882;SDS011;37739;50.350;7.578;2023-09-30T07:46:18;10.07;;;8.40;;
47882;SDS011;37739;50.350;7.578;2023-09-30T07:48:45;9.93;;;8.67;;
47882;SDS011;37739;50.350;7.578;2023-09-30T07:51:11;11.07;;;8.73;;
47882;SDS011;37739;50.350;7.578;2023-09-30T07:53:38;11.53;;;8.97;;
47882;SDS011;37739;50.350;7.578;2023-09-30T07:56:06;14.53;;;9.40;;
47882;SDS011;37739;50.350;7.578;2023-09-30T07:58:32;12.00;;;8.83;;
47882;SDS011;37739;50.350;7.578;2023-09-30T08:01:02;9.10;;;8.10;;
47882;SDS011;37739;50.350;7.578;2023-09-30T08:03:27;11.33;;;9.60;;
47882;SDS011;37739;50.350;7.578;2023-09-30T08:05:55;12.97;;;9.23;;
47882;SDS011;37739;50.350;7.578;2023-09-30T08:08:21;13.00;;;9.80;;
47882;SDS011;37739;50.350;7.578;2023-09-30T08:10:49;10.60;;;8.87;;
47882;SDS011;37739;50.350;7.578;2023-09-30T08:13:15;10.33;;;8.10;;
47882;SDS011;37739;50.350;7.578;2023-09-30T08:15:40;11.10;;;9.03;;
47882;SDS011;37739;50.350;7.578;2023-09-30T08:18:08;8.63;;;7.10;;
47882;SDS011;37739;50.350;7.578;2023-09-30T08:20:33;13.57;;;10.00;;
47882;SDS011;37739;50.350;7.578;2023-09-30T08:23:04;12.70;;;7.20;;
47882;SDS011;37739;50.350;7.578;2023-09-30T08:25:34;14.63;;;10.27;;
47882;SDS011;37739;50.350;7.578;2023-09-30T08:27:59;8.40;;;6.87;;
47882;SDS011;37739;50.350;7.578;2023-09-30T08:30:25;9.23;;;7.70;;
47882;SDS011;37739;50.350;7.578;2023-09-30T08:32:51;10.17;;;8.67;;
47882;SDS011;37739;50.350;7.578;2023-09-30T08:35:18;12.00;;;9.02;;
47882;SDS011;37739;50.350;7.578;2023-09-30T08:37:43;10.97;;;9.50;;
47882;SDS011;37739;50.350;7.578;2023-09-30T08:40:09;10.27;;;8.67;;
47882;SDS011;37739;50.350;7.578;2023-09-30T08:42:34;9.53;;;8.60;;
47882;SDS011;37739;50.350;7.578;2023-09-30T08:45:00;10.10;;;9.20;;
47882;SDS011;37739;50.350;7.578;2023-09-30T08:47:26;9.83;;;8.80;;
47882;SDS011;37739;50.350;7.578;2023-09-30T08:49:56;11.27;;;10.07;;
47882;SDS011;37739;50.350;7.578;2023-09-30T08:52:30;9.90;;;8.53;;
47882;SDS011;37739;50.350;7.578;2023-09-30T08:54:59;8.73;;;7.83;;
47882;SDS011;37739;50.350;7.578;2023-09-30T08:57:26;17.63;;;12.30;;
47882;SDS011;37739;50.350;7.578;2023-09-30T08:59:55;14.33;;;10.00;;
47882;SDS011;37739;50.350;7.578;2023-09-30T09:02:26;11.07;;;9.83;;
47882;SDS011;37739;50.350;7.578;2023-09-30T09:04:51;10.63;;;8.97;;
47882;SDS011;37739;50.350;7.578;2023-09-30T09:07:17;12.97;;;8.80;;
47882;SDS011;37739;50.350;7.578;2023-09-30T09:09:47;10.40;;;8.73;;
47882;SDS011;37739;50.350;7.578;2023-09-30T09:12:27;7.47;;;5.90;;
47882;SDS011;37739;50.350;7.578;2023-09-30T09:14:53;13.37;;;9.43;;
47882;SDS011;37739;50.350;7.578;2023-09-30T09:17:20;10.27;;;7.90;;
47882;SDS011;37739;50.350;7.578;2023-09-30T09:20:08;9.43;;;8.33;;
47882;SDS011;37739;50.350;7.578;2023-09-30T09:22:42;9.43;;;8.23;;
47882;SDS011;37739;50.350;7.578;2023-09-30T09:25:08;9.57;;;8.60;;
47882;SDS011;37739;50.350;7.578;2023-09-30T09:27:36;12.70;;;11.10;;
47882;SDS011;37739;50.350;7.578;2023-09-30T09:32:51;14.60;;;13.10;;
47882;SDS011;37739;50.350;7.578;2023-09-30T09:35:20;13.80;;;12.40;;
47882;SDS011;37739;50.350;7.578;2023-09-30T09:37:56;12.47;;;10.93;;
47882;SDS011;37739;50.350;7.578;2023-09-30T09:40:31;12.63;;;10.33;;
47882;SDS011;37739;50.350;7.578;2023-09-30T09:42:58;13.37;;;9.70;;
47882;SDS011;37739;50.350;7.578;2023-09-30T09:45:25;12.50;;;9.30;;
47882;SDS011;37739;50.350;7.578;2023-09-30T09:47:54;10.10;;;9.10;;
47882;SDS011;37739;50.350;7.578;2023-09-30T09:50:20;10.77;;;8.70;;
47882;SDS011;37739;50.350;7.578;2023-09-30T09:52:48;10.47;;;9.40;;
47882;SDS011;37739;50.350;7.578;2023-09-30T09:55:23;11.83;;;8.90;;
47882;SDS011;37739;50.350;7.578;2023-09-30T09:57:50;8.50;;;7.70;;
47882;SDS011;37739;50.350;7.578;2023-09-30T10:00:17;8.10;;;7.30;;
47882;SDS011;37739;50.350;7.578;2023-09-30T10:02:47;7.83;;;6.80;;
47882;SDS011;37739;50.350;7.578;2023-09-30T10:05:16;7.40;;;5.80;;
47882;SDS011;37739;50.350;7.578;2023-09-30T10:07:55;8.33;;;7.20;;
47882;SDS011;37739;50.350;7.578;2023-09-30T10:10:27;9.20;;;5.80;;
47882;SDS011;37739;50.350;7.578;2023-09-30T10:12:53;7.83;;;6.57;;
47882;SDS011;37739;50.350;7.578;2023-09-30T10:17:59;7.53;;;6.70;;
47882;SDS011;37739;50.350;7.578;2023-09-30T10:20:31;8.80;;;5.73;;
47882;SDS011;37739;50.350;7.578;2023-09-30T10:25:45;6.00;;;5.40;;
47882;SDS011;37739;50.350;7.578;2023-09-30T10:38:55;6.00;;;5.23;;
47882;SDS011;37739;50.350;7.578;2023-09-30T10:44:32;6.63;;;4.80;;
47882;SDS011;37739;50.350;7.578;2023-09-30T10:49:49;7.13;;;4.83;;
47882;SDS011;37739;50.350;7.578;2023-09-30T10:52:21;8.13;;;5.43;;
47882;SDS011;37739;50.350;7.578;2023-09-30T10:54:50;6.10;;;4.83;;
47882;SDS011;37739;50.350;7.578;2023-09-30T10:57:26;7.33;;;5.27;;
47882;SDS011;37739;50.350;7.578;2023-09-30T11:00:10;4.80;;;3.73;;
47882;SDS011;37739;50.350;7.578;2023-09-30T11:02:47;4.70;;;3.63;;
47882;SDS011;37739;50.350;7.578;2023-09-30T11:05:22;6.07;;;5.33;;
47882;SDS011;37739;50.350;7.578;2023-09-30T11:07:48;4.43;;;4.03;;
47882;SDS011;37739;50.350;7.578;2023-09-30T11:10:16;6.33;;;5.70;;
47882;SDS011;37739;50.350;7.578;2023-09-30T11:12:55;6.43;;;4.97;;
47882;SDS011;37739;50.350;7.578;2023-09-30T11:15:24;5.00;;;4.50;;
47882;SDS011;37739;50.350;7.578;2023-09-30T11:17:51;5.43;;;3.93;;
47882;SDS011;37739;50.350;7.578;2023-09-30T11:20:19;5.43;;;3.80;;
47882;SDS011;37739;50.350;7.578;2023-09-30T11:22:46;4.63;;;3.70;;
47882;SDS011;37739;50.350;7.578;2023-09-30T11:25:15;6.60;;;4.70;;
47882;SDS011;37739;50.350;7.578;2023-09-30T11:27:42;5.20;;;4.57;;
47882;SDS011;37739;50.350;7.578;2023-09-30T11:30:07;5.80;;;4.10;;
47882;SDS011;37739;50.350;7.578;2023-09-30T11:32:33;4.50;;;3.33;;
47882;SDS011;37739;50.350;7.578;2023-09-30T11:35:01;4.10;;;3.70;;
47882;SDS011;37739;50.350;7.578;2023-09-30T11:37:32;6.47;;;4.27;;
47882;SDS011;37739;50.350;7.578;2023-09-30T11:40:13;5.43;;;4.07;;
47882;SDS011;37739;50.350;7.578;2023-09-30T11:42:41;4.50;;;3.27;;
47882;SDS011;37739;50.350;7.578;2023-09-30T11:45:26;4.50;;;3.60;;
47882;SDS011;37739;50.350;7.578;2023-09-30T11:47:52;5.63;;;3.93;;
47882;SDS011;37739;50.350;7.578;2023-09-30T11:50:18;5.27;;;4.20;;
47882;SDS011;37739;50.350;7.578;2023-09-30T11:52:44;4.87;;;3.90;;
47882;SDS011;37739;50.350;7.578;2023-09-30T11:55:12;4.10;;;3.70;;
47882;SDS011;37739;50.350;7.578;2023-09-30T11:57:41;4.50;;;3.60;;
47882;SDS011;37739;50.350;7.578;2023-09-30T12:00:07;5.97;;;3.40;;
47882;SDS011;37739;50.350;7.578;2023-09-30T12:02:38;4.90;;;3.53;;
47882;SDS011;37739;50.350;7.578;2023-09-30T12:05:05;4.87;;;3.90;;
47882;SDS011;37739;50.350;7.578;2023-09-30T12:07:36;4.73;;;4.13;;
47882;SDS011;37739;50.350;7.578;2023-09-30T12:10:06;5.17;;;3.73;;
47882;SDS011;37739;50.350;7.578;2023-09-30T12:12:32;5.40;;;4.67;;
47882;SDS011;37739;50.350;7.578;2023-09-30T12:14:57;4.53;;;4.10;;
47882;SDS011;37739;50.350;7.578;2023-09-30T12:17:25;5.30;;;3.93;;
47882;SDS011;37739;50.350;7.578;2023-09-30T12:19:55;4.97;;;4.07;;
47882;SDS011;37739;50.350;7.578;2023-09-30T12:22:20;6.23;;;4.17;;
47882;SDS011;37739;50.350;7.578;2023-09-30T12:24:46;4.80;;;4.10;;
47882;SDS011;37739;50.350;7.578;2023-09-30T12:27:11;4.47;;;3.30;;
47882;SDS011;37739;50.350;7.578;2023-09-30T12:29:36;4.40;;;3.70;;
47882;SDS011;37739;50.350;7.578;2023-09-30T12:32:03;4.83;;;3.30;;
47882;SDS011;37739;50.350;7.578;2023-09-30T12:34:34;5.27;;;3.40;;
47882;SDS011;37739;50.350;7.578;2023-09-30T12:37:00;6.20;;;3.40;;
47882;SDS011;37739;50.350;7.578;2023-09-30T12:39:28;4.17;;;3.20;;
47882;SDS011;37739;50.350;7.578;2023-09-30T12:41:58;5.53;;;3.90;;
47882;SDS011;37739;50.350;7.578;2023-09-30T12:44:23;4.80;;;3.40;;
47882;SDS011;37739;50.350;7.578;2023-09-30T12:46:48;4.13;;;3.23;;
47882;SDS011;37739;50.350;7.578;2023-09-30T12:49:17;4.97;;;3.67;;
47882;SDS011;37739;50.350;7.578;2023-09-30T12:51:43;3.33;;;2.83;;
47882;SDS011;37739;50.350;7.578;2023-09-30T12:54:08;4.60;;;3.40;;
47882;SDS011;37739;50.350;7.578;2023-09-30T12:56:37;4.10;;;3.70;;
47882;SDS011;37739;50.350;7.578;2023-09-30T12:59:03;4.13;;;3.30;;
47882;SDS011;37739;50.350;7.578;2023-09-30T13:01:32;3.20;;;2.80;;
47882;SDS011;37739;50.350;7.578;2023-09-30T13:03:59;5.43;;;3.53;;
47882;SDS011;37739;50.350;7.578;2023-09-30T13:06:33;5.07;;;3.40;;
47882;SDS011;37739;50.350;7.578;2023-09-30T13:09:02;4.90;;;3.57;;
47882;SDS011;37739;50.350;7.578;2023-09-30T13:11:30;4.47;;;3.27;;
47882;SDS011;37739;50.350;7.578;2023-09-30T13:13:56;3.57;;;3.20;;
47882;SDS011;37739;50.350;7.578;2023-09-30T13:16:23;4.77;;;3.30;;
47882;SDS011;37739;50.350;7.578;2023-09-30T13:18:52;4.53;;;2.97;;
47882;SDS011;37739;50.350;7.578;2023-09-30T13:21:20;3.73;;;2.80;;
47882;SDS011;37739;50.350;7.578;2023-09-30T13:23:45;3.97;;;3.57;;
47882;SDS011;37739;50.350;7.578;2023-09-30T13:26:13;5.00;;;3.90;;
47882;SDS011;37739;50.350;7.578;2023-09-30T13:28:40;4.00;;;3.43;;
47882;SDS011;37739;50.350;7.578;2023-09-30T13:31:05;3.90;;;3.50;;
47882;SDS011;37739;50.350;7.578;2023-09-30T13:33:31;4.90;;;3.80;;
47882;SDS011;37739;50.350;7.578;2023-09-30T13:35:56;4.20;;;3.40;;
47882;SDS011;37739;50.350;7.578;2023-09-30T13:38:21;4.40;;;3.27;;
47882;SDS011;37739;50.350;7.578;2023-09-30T13:40:49;6.20;;;3.00;;
47882;SDS011;37739;50.350;7.578;2023-09-30T13:43:17;3.80;;;2.63;;
47882;SDS011;37739;50.350;7.578;2023-09-30T13:45:42;3.87;;;3.00;;
47882;SDS011;37739;50.350;7.578;2023-09-30T13:48:08;4.00;;;3.30;;
47882;SDS011;37739;50.350;7.578;2023-09-30T13:50:33;4.90;;;3.40;;
47882;SDS011;37739;50.350;7.578;2023-09-30T13:53:03;4.17;;;3.60;;
47882;SDS011;37739;50.350;7.578;2023-09-30T13:55:30;4.60;;;3.20;;
47882;SDS011;37739;50.350;7.578;2023-09-30T13:57:55;3.57;;;3.00;;
47882;SDS011;37739;50.350;7.578;2023-09-30T14:00:20;8.13;;;3.70;;
47882;SDS011;37739;50.350;7.578;2023-09-30T14:02:46;5.13;;;3.00;;
47882;SDS011;37739;50.350;7.578;2023-09-30T14:05:15;3.97;;;3.23;;
47882;SDS011;37739;50.350;7.578;2023-09-30T14:07:41;5.07;;;3.77;;
47882;SDS011;37739;50.350;7.578;2023-09-30T14:10:08;4.10;;;2.90;;
47882;SDS011;37739;50.350;7.578;2023-09-30T14:12:35;4.40;;;3.50;;
47882;SDS011;37739;50.350;7.578;2023-09-30T14:15:04;3.50;;;3.07;;
47882;SDS011;37739;50.350;7.578;2023-09-30T14:17:30;4.50;;;3.23;;
47882;SDS011;37739;50.350;7.578;2023-09-30T14:19:59;3.90;;;2.70;;
47882;SDS011;37739;50.350;7.578;2023-09-30T14:22:25;3.80;;;3.07;;
47882;SDS011;37739;50.350;7.578;2023-09-30T14:24:51;6.07;;;3.50;;
47882;SDS011;37739;50.350;7.578;2023-09-30T14:27:19;4.20;;;2.90;;
47882;SDS011;37739;50.350;7.578;2023-09-30T14:29:45;4.13;;;3.47;;
47882;SDS011;37739;50.350;7.578;2023-09-30T14:32:13;3.93;;;2.47;;
47882;SDS011;37739;50.350;7.578;2023-09-30T14:34:38;5.07;;;3.50;;
47882;SDS011;37739;50.350;7.578;2023-09-30T14:37:03;5.40;;;3.23;;
47882;SDS011;37739;50.350;7.578;2023-09-30T14:39:28;3.23;;;2.80;;
47882;SDS011;37739;50.350;7.578;2023-09-30T14:41:54;4.43;;;3.27;;
47882;SDS011;37739;50.350;7.578;2023-09-30T14:44:20;4.07;;;2.90;;
47882;SDS011;37739;50.350;7.578;2023-09-30T14:46:48;3.40;;;3.10;;
47882;SDS011;37739;50.350;7.578;2023-09-30T14:49:14;3.87;;;2.80;;
47882;SDS011;37739;50.350;7.578;2023-09-30T14:51:40;4.43;;;2.80;;
47882;SDS011;37739;50.350;7.578;2023-09-30T14:54:05;3.93;;;3.40;;
47882;SDS011;37739;50.350;7.578;2023-09-30T14:56:32;3.40;;;2.90;;
47882;SDS011;37739;50.350;7.578;2023-09-30T14:59:00;3.93;;;2.70;;
47882;SDS011;37739;50.350;7.578;2023-09-30T15:01:28;5.40;;;3.00;;
47882;SDS011;37739;50.350;7.578;2023-09-30T15:03:56;3.03;;;2.50;;
47882;SDS011;37739;50.350;7.578;2023-09-30T15:06:22;3.40;;;3.10;;
47882;SDS011;37739;50.350;7.578;2023-09-30T15:08:49;3.97;;;2.90;;
47882;SDS011;37739;50.350;7.578;2023-09-30T15:11:15;3.40;;;3.00;;
47882;SDS011;37739;50.350;7.578;2023-09-30T15:13:43;4.30;;;2.73;;